Amston, Connecticut
Current Conditions -  °F | °C
As of 12:52 AM on Sunday 21 Dec 2014 (Local Time) from KIJD Reporting Station
Overcast Overcast  
Wind Chill:   Ceiling: 1400
Heat Index:   Visibility: 10mi
Dew Point: -3°   Wind: 3mph
Humidity: 78%   Direction: 20°NNE
Pressure: 30.27"   Gusts: NA
Location:  41.63°N, 72.34°W
Report Text: KIJD 210552Z AUTO 02003KT 10SM BKN014 OVC019 01/M03 A3027 RMK AO2 SLP252 T00061028 10011 20006 55004
Loading
Personal Weather Stations






























Interactive Weather Map New forecast layout! Learn more

10-Day Weather Forecast

Advertisements
Track Severe Weather on mobile